Time;durP1;ratioP1;P1;durP2;ratioP2;P2;SDS_P1;SDS_P2;PMS_P1;PMS_P2;Temp;Humidity;BMP_temperature;BMP_pressure;BME280_temperature;BME280_humidity;BME280_pressure;Samples;Min_cycle;Max_cycle;Signal;HPM_P1;HPM_P2
2023/02/27 00:01:55;;;;;;;8.85;3.47;;;;;;;-1.07;100.00;-17998.19;5036272;28;20045;-80
2023/02/27 00:04:20;;;;;;;6.20;3.10;;;;;;;-1.16;100.00;-17995.97;5043460;28;20065;-79
2023/02/27 00:06:45;;;;;;;7.53;3.67;;;;;;;-1.26;100.00;-17993.22;5043536;28;20045;-79
2023/02/27 00:09:11;;;;;;;6.88;3.15;;;;;;;-1.25;100.00;-17993.50;5047257;28;20131;-80
2023/02/27 00:11:37;;;;;;;3.85;2.90;;;;;;;-1.28;100.00;-17992.53;5044937;28;20041;-80
2023/02/27 00:14:03;;;;;;;7.18;3.13;;;;;;;-1.30;100.00;-17991.97;5038760;28;20049;-80
2023/02/27 00:16:28;;;;;;;5.95;2.88;;;;;;;-1.23;100.00;-17993.91;5047394;28;20036;-80
2023/02/27 00:18:55;;;;;;;7.78;3.17;;;;;;;-1.08;100.00;-17997.94;5046282;28;20032;-80
2023/02/27 00:21:21;;;;;;;6.93;3.05;;;;;;;-1.03;100.00;-17999.31;5049494;28;20419;-80
2023/02/27 00:23:47;;;;;;;4.78;3.20;;;;;;;-0.99;100.00;-18000.56;5046154;28;20048;-80
2023/02/27 00:26:12;;;;;;;5.85;2.67;;;;;;;-0.95;100.00;-18001.53;5046527;28;20040;-80
2023/02/27 00:28:38;;;;;;;8.45;2.72;;;;;;;-0.92;100.00;-18002.50;5040768;28;20076;-80
2023/02/27 00:31:03;;;;;;;4.57;2.90;;;;;;;-0.87;100.00;-18003.75;5048537;28;20139;-80
2023/02/27 00:33:29;;;;;;;6.97;3.05;;;;;;;-0.83;100.00;-18004.72;5041057;28;20049;-80
2023/02/27 00:36:00;;;;;;;5.47;2.70;;;;;;;-0.80;100.00;-18005.69;5047336;28;20139;-80
2023/02/27 00:38:25;;;;;;;7.82;3.00;;;;;;;-0.83;100.00;-18004.84;5044212;28;20049;-80
2023/02/27 00:40:51;;;;;;;8.13;3.05;;;;;;;-0.84;100.00;-18004.56;5045158;28;20131;-80
2023/02/27 00:43:16;;;;;;;6.13;2.85;;;;;;;-0.88;100.00;-18003.34;5045408;28;20136;-80
2023/02/27 00:45:42;;;;;;;6.93;2.70;;;;;;;-0.95;100.00;-18001.53;5041501;28;20073;-80
2023/02/27 00:48:07;;;;;;;6.82;2.78;;;;;;;-1.01;100.00;-17999.88;5047396;28;20056;-80
2023/02/27 00:50:32;;;;;;;5.55;2.58;;;;;;;-1.08;100.00;-17997.94;5038639;28;20126;-80
2023/02/27 00:52:58;;;;;;;5.72;3.30;;;;;;;-1.10;100.00;-17997.38;5038550;28;20033;-80
2023/02/27 00:55:23;;;;;;;5.78;2.88;;;;;;;-1.09;100.00;-17997.66;5043085;28;20047;-80
2023/02/27 00:57:48;;;;;;;9.48;2.67;;;;;;;-1.15;100.00;-17996.25;5039052;28;20146;-80
2023/02/27 01:00:14;;;;;;;6.55;3.08;;;;;;;-1.18;100.00;-17995.28;5050184;28;20079;-80
2023/02/27 01:02:40;;;;;;;8.20;2.85;;;;;;;-1.25;100.00;-17993.50;5040092;28;20102;-80
2023/02/27 01:05:05;;;;;;;5.88;2.50;;;;;;;-1.30;100.00;-17992.09;5049268;28;20047;-80
2023/02/27 01:07:31;;;;;;;6.55;2.88;;;;;;;-1.31;100.00;-17991.81;5037865;28;20045;-80
2023/02/27 01:09:57;;;;;;;7.40;3.20;;;;;;;-1.36;100.00;-17990.56;5044657;28;20056;-80
2023/02/27 01:12:22;;;;;;;7.63;2.90;;;;;;;-1.38;100.00;-17989.88;5041275;28;20407;-80
2023/02/27 01:14:48;;;;;;;6.43;3.22;;;;;;;-1.41;100.00;-17989.19;5033918;28;20045;-80
2023/02/27 01:17:13;;;;;;;6.28;2.47;;;;;;;-1.47;100.00;-17987.53;5041979;28;20063;-80
2023/02/27 01:19:38;;;;;;;6.65;3.28;;;;;;;-1.44;100.00;-17988.22;5043297;28;20049;-80
2023/02/27 01:22:04;;;;;;;6.80;3.22;;;;;;;-1.49;100.00;-17986.84;5035221;28;20519;-80
2023/02/27 01:24:30;;;;;;;7.45;2.92;;;;;;;-1.59;100.00;-17984.19;5040364;28;20055;-80
2023/02/27 01:26:55;;;;;;;8.70;3.35;;;;;;;-1.57;100.00;-17984.75;5038893;28;20095;-80
2023/02/27 01:29:20;;;;;;;6.13;3.28;;;;;;;-1.65;100.00;-17982.66;5042750;28;20045;-80
2023/02/27 01:31:47;;;;;;;8.32;3.60;;;;;;;-1.61;100.00;-17983.66;5042667;28;20499;-80
2023/02/27 01:34:13;;;;;;;8.15;3.20;;;;;;;-1.69;100.00;-17981.56;5047177;28;20041;-80
2023/02/27 01:36:38;;;;;;;6.60;3.47;;;;;;;-1.70;100.00;-17981.28;5049582;28;20055;-80
2023/02/27 01:39:03;;;;;;;6.55;3.05;;;;;;;-1.75;100.00;-17979.91;5045932;28;20057;-80
2023/02/27 01:41:30;;;;;;;7.55;3.50;;;;;;;-1.87;100.00;-17976.72;5047523;28;20037;-80
2023/02/27 01:44:05;;;;;;;6.63;3.33;;;;;;;-1.92;100.00;-17975.19;5042062;28;20061;-80
2023/02/27 01:46:31;;;;;;;8.55;3.45;;;;;;;-1.94;100.00;-17974.63;5050281;28;20067;-80
2023/02/27 01:49:12;;;;;;;9.68;3.80;;;;;;;-2.00;100.00;-17972.97;5056734;28;20048;-81
2023/02/27 01:51:45;;;;;;;7.00;3.63;;;;;;;-2.11;100.00;-17970.19;5044022;28;20124;-80
2023/02/27 01:54:14;;;;;;;7.47;3.90;;;;;;;-2.17;100.00;-17968.38;5042429;28;20045;-81
2023/02/27 01:56:40;;;;;;;8.02;3.95;;;;;;;-2.22;100.00;-17967.13;5046629;28;20052;-80
2023/02/27 01:59:09;;;;;;;6.85;3.80;;;;;;;-2.15;100.00;-17969.06;5058641;28;20041;-80
2023/02/27 02:01:35;;;;;;;7.13;3.78;;;;;;;-2.14;100.00;-17969.22;5040807;28;20064;-80
2023/02/27 02:04:27;;;;;;;6.13;3.17;;;;;;;-2.06;100.00;-17971.44;5044506;28;20500;-80
2023/02/27 02:07:01;;;;;;;7.82;3.60;;;;;;;-2.08;100.00;-17970.88;5045968;28;20048;-80
2023/02/27 02:09:28;;;;;;;7.35;3.15;;;;;;;-2.05;100.00;-17971.84;5045630;28;20506;-80
2023/02/27 02:11:55;;;;;;;7.50;3.70;;;;;;;-2.06;100.00;-17971.56;5045735;28;20402;-80
2023/02/27 02:14:20;;;;;;;8.38;3.70;;;;;;;-2.07;100.00;-17971.28;5045937;28;20449;-80
2023/02/27 02:16:55;;;;;;;11.95;3.63;;;;;;;-2.18;100.00;-17968.09;5048365;28;20049;-80
2023/02/27 02:19:38;;;;;;;5.72;3.13;;;;;;;-2.20;100.00;-17967.56;5028935;28;20037;-80
2023/02/27 02:22:37;;;;;;;9.00;3.55;;;;;;;-2.21;100.00;-17967.41;5045401;28;20147;-80
2023/02/27 02:25:08;;;;;;;7.25;3.42;;;;;;;-2.32;100.00;-17964.50;5054195;28;20036;-80
2023/02/27 02:27:50;;;;;;;8.65;3.72;;;;;;;-2.31;100.00;-17964.63;5042117;28;20151;-80
2023/02/27 02:30:40;;;;;;;9.13;3.45;;;;;;;-2.30;100.00;-17965.06;5039863;28;20175;-80
2023/02/27 02:33:34;;;;;;;8.32;3.42;;;;;;;-2.30;100.00;-17964.91;5051636;28;20041;-80
2023/02/27 02:36:22;;;;;;;7.15;3.55;;;;;;;-2.35;100.00;-17963.66;5016142;28;20045;-80
2023/02/27 02:38:55;;;;;;;7.13;3.60;;;;;;;-2.41;100.00;-17961.84;5044896;28;20052;-80
2023/02/27 02:41:45;;;;;;;12.63;4.20;;;;;;;-2.42;100.00;-17961.56;5044401;28;20053;-80
2023/02/27 02:44:26;;;;;;;8.23;4.05;;;;;;;-2.47;100.00;-17960.19;5046430;28;20504;-81
2023/02/27 02:47:21;;;;;;;6.32;3.75;;;;;;;-2.46;100.00;-17960.47;5039855;28;20548;-80
2023/02/27 02:49:59;;;;;;;6.63;2.92;;;;;;;-2.55;100.00;-17958.13;5046583;28;20063;-80
2023/02/27 02:52:53;;;;;;;7.20;3.38;;;;;;;-2.47;100.00;-17960.19;5043737;28;20088;-80
2023/02/27 02:55:43;;;;;;;9.25;3.40;;;;;;;-2.52;100.00;-17959.09;5040660;28;20053;-80
2023/02/27 02:58:26;;;;;;;6.72;3.45;;;;;;;-2.58;100.00;-17957.41;5049108;28;20060;-80
2023/02/27 03:00:58;;;;;;;7.13;3.70;;;;;;;-2.62;100.00;-17956.31;5052775;28;20037;-80
2023/02/27 03:03:29;;;;;;;8.20;3.15;;;;;;;-2.64;100.00;-17955.75;5040592;28;20053;-80
2023/02/27 03:06:07;;;;;;;9.68;3.83;;;;;;;-2.70;100.00;-17953.94;5064166;28;20510;-80
2023/02/27 03:08:39;;;;;;;6.40;3.40;;;;;;;-2.67;100.00;-17954.78;5043869;28;20049;-80
2023/02/27 03:11:05;;;;;;;8.80;4.47;;;;;;;-2.72;100.00;-17953.53;5064848;28;20040;-80
2023/02/27 03:13:42;;;;;;;6.93;3.70;;;;;;;-2.71;100.00;-17953.81;5045162;28;20094;-81
2023/02/27 03:16:13;;;;;;;8.35;4.10;;;;;;;-2.73;100.00;-17953.41;5048327;28;20045;-80
2023/02/27 03:18:49;;;;;;;9.48;4.30;;;;;;;-2.77;100.00;-17952.28;5048542;28;20049;-80
2023/02/27 03:21:21;;;;;;;8.75;3.70;;;;;;;-2.79;100.00;-17951.72;5056520;28;20063;-80
2023/02/27 03:23:55;;;;;;;7.68;3.70;;;;;;;-2.91;100.00;-17948.25;5051591;28;20445;-81
2023/02/27 03:26:28;;;;;;;8.70;3.97;;;;;;;-2.95;100.00;-17947.28;5024307;28;20454;-80
2023/02/27 03:29:00;;;;;;;8.35;3.80;;;;;;;-3.05;100.00;-17944.66;5038616;28;20087;-81
2023/02/27 03:31:48;;;;;;;7.95;4.20;;;;;;;-3.11;100.00;-17942.97;5042066;28;20034;-81
2023/02/27 03:34:21;;;;;;;8.82;3.85;;;;;;;-3.12;100.00;-17942.56;5040468;28;20040;-82
2023/02/27 03:36:58;;;;;;;8.38;4.05;;;;;;;-3.14;100.00;-17942.00;5041180;28;20100;-81
2023/02/27 03:39:41;;;;;;;9.50;4.57;;;;;;;-3.12;100.00;-17942.56;5039202;28;20129;-81
2023/02/27 03:42:15;;;;;;;9.73;4.18;;;;;;;-3.12;100.00;-17942.56;5039853;28;20091;-82
2023/02/27 03:45:03;;;;;;;7.55;5.18;;;;;;;-3.14;100.00;-17942.16;5041491;28;20041;-80
2023/02/27 03:47:29;;;;;;;7.13;4.18;;;;;;;-3.23;100.00;-17939.66;5054315;28;20041;-81
2023/02/27 03:49:55;;;;;;;8.32;4.50;;;;;;;-3.25;100.00;-17939.09;5041722;28;20037;-81
2023/02/27 03:52:23;;;;;;;8.20;4.78;;;;;;;-3.27;100.00;-17938.53;5039716;28;20099;-80
2023/02/27 03:54:55;;;;;;;7.25;3.80;;;;;;;-3.31;100.00;-17937.41;5042615;28;20048;-80
2023/02/27 03:57:21;;;;;;;8.32;4.50;;;;;;;-3.32;100.00;-17937.28;5035343;28;20124;-81
2023/02/27 03:59:46;;;;;;;8.48;4.13;;;;;;;-3.44;100.00;-17934.09;5035220;28;20140;-81
2023/02/27 04:02:12;;;;;;;11.88;3.90;;;;;;;-3.38;100.00;-17935.47;5037730;28;20037;-79
2023/02/27 04:04:39;;;;;;;8.18;4.30;;;;;;;-3.38;100.00;-17935.63;5044676;28;20642;-79
2023/02/27 04:07:23;;;;;;;8.43;4.35;;;;;;;-3.42;100.00;-17934.66;5042653;28;20037;-80
2023/02/27 04:10:33;;;;;;;8.95;4.15;;;;;;;-3.43;100.00;-17934.22;5039381;28;20086;-81
2023/02/27 04:13:23;;;;;;;9.65;4.40;;;;;;;-3.55;100.00;-17931.03;5041694;28;20060;-81
2023/02/27 04:16:26;;;;;;;7.03;4.43;;;;;;;-3.53;100.00;-17931.47;5042173;28;20446;-80
2023/02/27 04:19:24;;;;;;;8.73;4.72;;;;;;;-3.50;100.00;-17932.28;5040744;28;20043;-80
2023/02/27 04:22:02;;;;;;;8.57;4.73;;;;;;;-3.51;100.00;-17932.00;5036253;28;20538;-81
2023/02/27 04:24:27;;;;;;;8.43;4.63;;;;;;;-3.53;100.00;-17931.59;5043839;28;20037;-80
2023/02/27 04:27:28;;;;;;;10.70;4.85;;;;;;;-3.50;100.00;-17932.28;5037980;28;20372;-80
2023/02/27 04:30:03;;;;;;;7.15;4.80;;;;;;;-3.47;100.00;-17933.25;5040272;28;20074;-80
2023/02/27 04:32:40;;;;;;;7.95;4.60;;;;;;;-3.45;100.00;-17933.81;5043083;28;20041;-81
2023/02/27 04:36:00;;;;;;;8.80;4.72;;;;;;;-3.52;100.00;-17931.72;5035217;28;20449;-81
2023/02/27 04:38:43;;;;;;;10.77;5.72;;;;;;;-3.53;100.00;-17931.59;5005718;28;20041;-81
2023/02/27 04:41:15;;;;;;;10.57;4.85;;;;;;;-3.61;100.00;-17929.38;5038758;28;20496;-81
2023/02/27 04:43:44;;;;;;;9.52;5.28;;;;;;;-3.59;100.00;-17929.78;5037073;28;20056;-79
2023/02/27 04:46:14;;;;;;;10.43;5.07;;;;;;;-3.63;100.00;-17928.94;5046485;28;20041;-80
2023/02/27 04:48:49;;;;;;;8.63;4.25;;;;;;;-3.64;100.00;-17928.53;5043336;28;20069;-81
2023/02/27 04:51:18;;;;;;;10.77;4.50;;;;;;;-3.61;100.00;-17929.38;5039995;28;20377;-79
2023/02/27 04:53:44;;;;;;;;;;;;;;;-3.70;100.00;-17926.88;5047692;28;20052;-81
2023/02/27 04:56:18;;;;;;;10.07;4.88;;;;;;;-3.81;100.00;-17923.81;5035733;28;19917;-80
2023/02/27 04:58:49;;;;;;;9.60;5.75;;;;;;;-3.86;100.00;-17922.69;5046891;28;20044;-80
2023/02/27 05:01:45;;;;;;;8.68;4.43;;;;;;;-3.83;100.00;-17923.41;5040217;28;20048;-80
2023/02/27 05:04:14;;;;;;;7.07;4.57;;;;;;;-3.89;100.00;-17921.72;5036923;28;20037;-81
2023/02/27 05:06:43;;;;;;;7.85;4.22;;;;;;;-3.88;100.00;-17922.00;5039191;28;20124;-81
2023/02/27 05:09:28;;;;;;;10.85;4.60;;;;;;;-3.80;100.00;-17924.09;5041390;28;20451;-81
2023/02/27 05:12:04;;;;;;;7.63;4.68;;;;;;;-3.77;100.00;-17924.91;5044460;28;20040;-81
2023/02/27 05:14:38;;;;;;;10.30;5.20;;;;;;;-3.75;100.00;-17925.47;5040606;28;20095;-80
2023/02/27 05:17:30;;;;;;;10.75;4.72;;;;;;;-3.80;100.00;-17924.22;5044494;28;20042;-80
2023/02/27 05:19:55;;;;;;;10.40;4.57;;;;;;;-3.79;100.00;-17924.38;5042620;28;20045;-81
2023/02/27 05:22:25;;;;;;;7.88;4.10;;;;;;;-3.81;100.00;-17923.94;5044523;28;20037;-80
2023/02/27 05:25:07;;;;;;;8.05;4.55;;;;;;;-3.89;100.00;-17921.88;5041859;28;20048;-81
2023/02/27 05:27:47;;;;;;;8.13;4.50;;;;;;;-3.92;100.00;-17921.03;5039622;28;20149;-82
2023/02/27 05:30:33;;;;;;;9.30;5.20;;;;;;;-3.94;100.00;-17920.47;5061083;28;20064;-80
2023/02/27 05:33:24;;;;;;;10.48;5.03;;;;;;;-3.95;100.00;-17920.19;5046339;28;20118;-81
2023/02/27 05:36:02;;;;;;;11.77;5.07;;;;;;;-4.02;100.00;-17918.13;5043443;28;20033;-80
2023/02/27 05:38:35;;;;;;;8.90;4.82;;;;;;;-3.98;100.00;-17919.38;5045056;28;20040;-81
2023/02/27 05:41:17;;;;;;;6.90;4.88;;;;;;;-4.04;100.00;-17917.69;5031253;28;20075;-81
2023/02/27 05:44:14;;;;;;;8.70;4.78;;;;;;;-4.02;100.00;-17918.25;5033603;28;20060;-81
2023/02/27 05:46:44;;;;;;;10.27;5.35;;;;;;;-3.92;100.00;-17920.91;5035501;28;20056;-81
2023/02/27 05:49:18;;;;;;;11.48;5.68;;;;;;;-3.90;100.00;-17921.59;5054867;28;20507;-81
2023/02/27 05:51:46;;;;;;;9.45;4.93;;;;;;;-3.92;100.00;-17921.03;5036502;28;20049;-81
2023/02/27 05:54:30;;;;;;;9.55;5.35;;;;;;;-3.93;100.00;-17920.63;5039078;28;20037;-80
2023/02/27 05:56:58;;;;;;;10.20;5.32;;;;;;;-3.94;100.00;-17920.34;5046111;28;20045;-81
2023/02/27 05:59:38;;;;;;;10.07;5.47;;;;;;;-3.91;100.00;-17921.19;5042765;28;20134;-81
2023/02/27 06:02:04;;;;;;;9.02;5.15;;;;;;;-3.90;100.00;-17921.59;5041027;28;20053;-81
2023/02/27 06:04:30;;;;;;;10.35;5.38;;;;;;;-3.91;100.00;-17921.31;5063008;22;20531;-84
2023/02/27 06:06:56;;;;;;;11.38;5.18;;;;;;;-3.88;100.00;-17922.16;5035272;28;20083;-83
2023/02/27 06:09:21;;;;;;;11.38;6.07;;;;;;;-3.90;100.00;-17921.59;5052559;28;20064;-84
2023/02/27 06:11:47;;;;;;;7.78;5.28;;;;;;;-3.86;100.00;-17922.69;5046601;28;20072;-83
2023/02/27 06:14:12;;;;;;;8.15;5.25;;;;;;;-3.82;100.00;-17923.53;5064437;28;20044;-83
2023/02/27 06:16:37;;;;;;;9.05;4.90;;;;;;;-3.88;100.00;-17922.16;5064945;28;20044;-83
2023/02/27 06:19:04;;;;;;;9.45;5.80;;;;;;;-3.89;100.00;-17921.72;5068907;28;20139;-83
2023/02/27 06:21:30;;;;;;;12.52;6.07;;;;;;;-3.88;100.00;-17922.00;5063518;28;20490;-83
2023/02/27 06:23:56;;;;;;;9.60;6.03;;;;;;;-3.80;100.00;-17924.09;5058534;28;20100;-83
2023/02/27 06:26:21;;;;;;;11.07;5.70;;;;;;;-3.80;100.00;-17924.09;5065019;28;20455;-83
2023/02/27 06:28:46;;;;;;;12.55;5.53;;;;;;;-3.78;100.00;-17924.66;5041766;28;20041;-83
2023/02/27 06:31:12;;;;;;;9.60;5.60;;;;;;;-3.82;100.00;-17923.53;5046884;28;20036;-83
2023/02/27 06:33:37;;;;;;;10.23;5.10;;;;;;;-3.84;100.00;-17922.97;5070352;28;20047;-83
2023/02/27 06:36:03;;;;;;;12.55;5.78;;;;;;;-3.75;100.00;-17925.47;5064086;28;20048;-83
2023/02/27 06:38:28;;;;;;;9.88;6.20;;;;;;;-3.79;100.00;-17924.50;5046507;28;20051;-83
2023/02/27 06:40:54;;;;;;;13.10;6.07;;;;;;;-3.78;100.00;-17924.66;5061533;28;20052;-83
2023/02/27 06:43:21;;;;;;;9.32;5.72;;;;;;;-3.81;100.00;-17923.94;5071455;28;20079;-83
2023/02/27 06:45:47;;;;;;;9.27;5.78;;;;;;;-3.68;100.00;-17927.56;5062132;28;20044;-83
2023/02/27 06:48:13;;;;;;;12.80;5.80;;;;;;;-3.68;100.00;-17927.44;5066569;28;20098;-83
2023/02/27 06:50:39;;;;;;;12.13;6.32;;;;;;;-3.68;100.00;-17927.44;5065391;28;20127;-82
2023/02/27 06:53:05;;;;;;;11.57;5.78;;;;;;;-3.67;100.00;-17927.69;5067743;28;20067;-82
2023/02/27 06:55:31;;;;;;;12.02;5.97;;;;;;;-3.74;100.00;-17925.91;5078148;28;20033;-82
2023/02/27 06:57:57;;;;;;;11.88;5.78;;;;;;;-3.76;100.00;-17925.19;5066082;28;20037;-82
2023/02/27 07:00:22;;;;;;;11.65;6.22;;;;;;;-3.73;100.00;-17926.19;5066223;28;20071;-82
2023/02/27 07:02:48;;;;;;;11.52;6.85;;;;;;;-3.70;100.00;-17927.00;5067728;28;20136;-82
2023/02/27 07:05:13;;;;;;;11.98;7.20;;;;;;;-3.66;100.00;-17927.97;5069735;28;20033;-83
2023/02/27 07:07:39;;;;;;;12.50;6.57;;;;;;;-3.56;100.00;-17930.75;5064951;28;20079;-82
2023/02/27 07:10:07;;;;;;;11.30;6.18;;;;;;;-3.53;100.00;-17931.47;5066161;28;20044;-82
2023/02/27 07:12:32;;;;;;;9.80;6.88;;;;;;;-3.52;100.00;-17931.88;5064696;28;20080;-82
2023/02/27 07:14:58;;;;;;;12.05;6.93;;;;;;;-3.44;100.00;-17934.09;5041629;28;20119;-82
2023/02/27 07:17:23;;;;;;;9.50;7.25;;;;;;;-3.40;100.00;-17935.06;5068407;28;20055;-82
2023/02/27 07:19:49;;;;;;;13.57;8.07;;;;;;;-3.34;100.00;-17936.72;5066737;28;20083;-82
2023/02/27 07:22:14;;;;;;;13.38;7.63;;;;;;;-3.30;100.00;-17937.84;5078694;28;20099;-82
2023/02/27 07:24:40;;;;;;;12.35;7.10;;;;;;;-3.20;100.00;-17940.63;5076122;28;20032;-83
2023/02/27 07:27:06;;;;;;;14.45;8.13;;;;;;;-3.14;100.00;-17942.16;5065645;28;20465;-83
2023/02/27 07:29:31;;;;;;;16.27;6.80;;;;;;;-3.01;100.00;-17945.63;5064926;28;20041;-83
2023/02/27 07:31:56;;;;;;;11.05;7.65;;;;;;;-2.92;100.00;-17947.97;5071260;28;20414;-82
2023/02/27 07:34:22;;;;;;;13.85;7.97;;;;;;;-2.88;100.00;-17949.22;5069085;28;20447;-82
2023/02/27 07:36:47;;;;;;;11.95;7.10;;;;;;;-2.75;100.00;-17952.84;5063511;28;20082;-82
2023/02/27 07:39:13;;;;;;;11.90;7.43;;;;;;;-2.64;100.00;-17955.75;5065895;28;20553;-82
2023/02/27 07:41:39;;;;;;;11.43;7.57;;;;;;;-2.57;100.00;-17957.69;5068776;28;20040;-82
2023/02/27 07:44:07;;;;;;;15.38;8.00;;;;;;;-2.51;100.00;-17959.22;5069603;28;20117;-82
2023/02/27 07:46:32;;;;;;;10.27;7.50;;;;;;;-2.41;100.00;-17961.84;5069055;28;20128;-82
2023/02/27 07:48:58;;;;;;;13.57;7.90;;;;;;;-2.29;100.00;-17965.19;5067141;28;20135;-82
2023/02/27 07:51:23;;;;;;;12.95;8.00;;;;;;;-2.20;100.00;-17967.56;5064740;28;20109;-82
2023/02/27 07:53:48;;;;;;;15.55;8.00;;;;;;;-2.10;100.00;-17970.47;5070514;28;20048;-82
2023/02/27 07:56:14;;;;;;;13.63;6.93;;;;;;;-1.98;100.00;-17973.50;5074237;28;20480;-81
2023/02/27 07:58:39;;;;;;;13.05;7.85;;;;;;;-1.86;100.00;-17976.97;5073377;28;20036;-82
2023/02/27 08:01:05;;;;;;;10.93;6.22;;;;;;;-1.76;100.00;-17979.47;5052641;28;20042;-82
2023/02/27 08:03:30;;;;;;;12.25;6.32;;;;;;;-1.63;100.00;-17983.22;5069018;28;20056;-82
2023/02/27 08:05:55;;;;;;;11.50;6.78;;;;;;;-1.47;100.00;-17987.53;5063986;28;20061;-82
2023/02/27 08:08:20;;;;;;;12.07;6.63;;;;;;;-1.37;100.00;-17990.16;5065275;28;20044;-82
2023/02/27 08:10:46;;;;;;;9.55;5.65;;;;;;;-1.30;100.00;-17992.09;5083396;28;20040;-81
2023/02/27 08:13:12;;;;;;;9.98;5.97;;;;;;;-1.21;100.00;-17994.47;5081036;28;20036;-82
2023/02/27 08:15:38;;;;;;;12.07;5.80;;;;;;;-1.08;100.00;-17998.06;5073327;28;20065;-82
2023/02/27 08:18:03;;;;;;;8.10;4.82;;;;;;;-0.98;100.00;-18000.84;5070666;28;20044;-82
2023/02/27 08:20:28;;;;;;;10.55;4.47;;;;;;;-0.93;100.00;-18002.09;5073825;28;20080;-82
2023/02/27 08:22:54;;;;;;;15.75;4.75;;;;;;;-0.86;100.00;-18004.03;5073690;28;20033;-82
2023/02/27 08:25:20;;;;;;;11.00;4.78;;;;;;;-0.79;100.00;-18005.81;5070501;28;20041;-82
2023/02/27 08:27:45;;;;;;;9.75;5.40;;;;;;;-0.69;100.00;-18008.75;5060923;28;20055;-82
2023/02/27 08:30:11;;;;;;;8.57;5.53;;;;;;;-0.61;100.00;-18010.69;5072739;28;20034;-82
2023/02/27 08:32:37;;;;;;;10.20;5.35;;;;;;;-0.54;100.00;-18012.63;5073417;28;20048;-82
2023/02/27 08:35:03;;;;;;;10.90;5.50;;;;;;;-0.48;100.00;-18014.28;5072821;28;20127;-82
2023/02/27 08:37:29;;;;;;;9.43;6.00;;;;;;;-0.35;100.00;-18017.75;5057332;28;20371;-82
2023/02/27 08:39:55;;;;;;;10.10;5.18;;;;;;;-0.30;100.00;-18019.28;5083426;28;20040;-82
2023/02/27 08:42:20;;;;;;;8.07;4.80;;;;;;;-0.21;100.00;-18021.63;5081131;28;20037;-82
2023/02/27 08:44:45;;;;;;;9.85;4.82;;;;;;;-0.06;100.00;-18025.66;5073285;28;20124;-82
2023/02/27 08:47:11;;;;;;;10.48;4.95;;;;;;;0.06;100.00;-18028.84;5071205;28;20073;-82
2023/02/27 08:49:36;;;;;;;7.35;4.40;;;;;;;0.07;100.00;-18029.25;5070122;28;20139;-82
2023/02/27 08:52:03;;;;;;;8.45;4.30;;;;;;;0.15;100.00;-18031.34;5072152;28;20066;-82
2023/02/27 08:54:28;;;;;;;8.20;4.00;;;;;;;0.30;100.00;-18035.34;5074261;28;20044;-82
2023/02/27 08:56:54;;;;;;;7.45;3.38;;;;;;;0.49;100.00;-18040.47;5065045;28;20048;-82
2023/02/27 08:59:19;;;;;;;5.53;2.83;;;;;;;0.56;100.00;-18042.41;5057178;28;20045;-82
2023/02/27 09:01:44;;;;;;;5.20;3.05;;;;;;;0.69;100.00;-18046.00;5063593;28;20072;-82
2023/02/27 09:04:10;;;;;;;7.72;3.47;;;;;;;0.86;100.00;-18050.56;5060912;28;20048;-82
2023/02/27 09:06:36;;;;;;;11.07;3.30;;;;;;;0.93;100.00;-18052.38;5059382;28;20045;-82
2023/02/27 09:09:02;;;;;;;6.20;3.20;;;;;;;1.11;100.00;-18057.38;5047835;28;20041;-82
2023/02/27 09:11:27;;;;;;;12.23;3.42;;;;;;;1.24;100.00;-18060.97;5064886;28;20040;-82
2023/02/27 09:13:53;;;;;;;5.60;2.85;;;;;;;1.33;100.00;-18063.47;5071645;28;20052;-82
2023/02/27 09:16:21;;;;;;;7.47;3.20;;;;;;;1.47;100.00;-18067.19;5066118;28;20070;-83
2023/02/27 09:18:47;;;;;;;8.48;3.55;;;;;;;1.53;100.00;-18068.84;5066449;28;20426;-82
2023/02/27 09:21:13;;;;;;;6.00;3.20;;;;;;;1.73;100.00;-18074.13;5069964;28;20056;-82
2023/02/27 09:23:39;;;;;;;11.52;3.50;;;;;;;1.86;100.00;-18077.56;5071497;28;20040;-82
2023/02/27 09:26:05;;;;;;;7.72;3.35;;;;;;;1.94;100.00;-18079.78;5063661;28;20525;-83
2023/02/27 09:28:31;;;;;;;7.70;3.45;;;;;;;1.95;100.00;-18080.19;5050343;28;20048;-83
2023/02/27 09:31:04;;;;;;;10.68;3.28;;;;;;;1.99;100.00;-18081.31;5050212;28;20036;-83
2023/02/27 09:33:31;;;;;;;7.90;3.13;;;;;;;1.98;100.00;-18080.88;5037031;28;20036;-82
2023/02/27 09:35:56;;;;;;;6.72;2.97;;;;;;;2.01;100.00;-18081.72;5076302;28;20032;-83
2023/02/27 09:38:22;;;;;;;7.13;3.42;;;;;;;2.02;100.00;-18082.13;5060992;28;20075;-83
2023/02/27 09:40:50;;;;;;;8.55;3.75;;;;;;;2.05;100.00;-18082.84;5060004;28;20045;-83
2023/02/27 09:43:20;;;;;;;8.52;3.72;;;;;;;2.17;100.00;-18086.00;5068836;28;20070;-83
2023/02/27 09:45:53;;;;;;;7.40;3.60;;;;;;;2.20;100.00;-18086.84;5066197;28;20041;-84
2023/02/27 09:48:29;;;;;;;6.70;3.08;;;;;;;2.27;100.00;-18088.78;5064147;28;20048;-83
2023/02/27 09:50:55;;;;;;;10.07;3.50;;;;;;;2.20;100.00;-18086.97;5071983;28;20071;-83
2023/02/27 09:53:25;;;;;;;7.68;3.45;;;;;;;2.31;100.00;-18089.88;5065810;28;20053;-83
2023/02/27 09:55:53;;;;;;;6.18;3.08;;;;;;;2.40;100.00;-18092.38;5069154;28;20072;-84
2023/02/27 09:58:40;;;;;;;5.25;3.10;;;;;;;2.47;100.00;-18094.16;5066970;28;20044;-83
2023/02/27 10:01:15;;;;;;;9.13;3.17;;;;;;;2.44;100.00;-18093.47;5043549;28;20068;-84
2023/02/27 10:03:56;;;;;;;6.95;3.03;;;;;;;2.56;100.00;-18096.53;5075109;28;20051;-84
2023/02/27 10:06:29;;;;;;;8.63;4.63;;;;;;;2.58;100.00;-18097.22;5067095;28;20395;-84
2023/02/27 10:09:21;;;;;;;9.73;3.38;;;;;;;2.68;100.00;-18099.84;5067911;28;20053;-84
2023/02/27 10:12:29;;;;;;;9.18;3.20;;;;;;;2.87;100.00;-18104.97;5033697;28;20123;-84
2023/02/27 10:15:01;;;;;;;9.25;2.90;;;;;;;2.97;100.00;-18107.72;5047658;28;20045;-84
2023/02/27 10:17:51;;;;;;;7.93;3.10;;;;;;;2.91;100.00;-18106.19;5042784;28;20503;-83
2023/02/27 10:20:27;;;;;;;8.15;3.00;;;;;;;2.83;100.00;-18104.00;5062012;28;20157;-83
2023/02/27 10:22:56;;;;;;;8.05;3.25;;;;;;;2.80;100.00;-18103.16;5066727;28;20040;-83
2023/02/27 10:25:22;;;;;;;4.85;2.50;;;;;;;2.97;100.00;-18107.72;5068225;28;20086;-83
2023/02/27 10:27:52;;;;;;;7.00;2.97;;;;;;;3.04;100.00;-18109.66;5066587;28;20044;-84
2023/02/27 10:30:31;;;;;;;7.22;2.60;;;;;;;3.17;100.00;-18113.13;5065514;28;20052;-83
2023/02/27 10:33:03;;;;;;;4.97;2.60;;;;;;;3.17;100.00;-18113.25;5068550;28;20044;-85
2023/02/27 10:35:38;;;;;;;6.10;2.60;;;;;;;3.33;100.00;-18117.53;5029233;28;20045;-84
2023/02/27 10:38:18;;;;;;;13.90;7.57;;;;;;;3.34;100.00;-18117.81;5045857;28;20189;-84
2023/02/27 10:40:45;;;;;;;10.32;5.45;;;;;;;3.31;100.00;-18116.84;5055907;28;20055;-84
2023/02/27 10:43:15;;;;;;;7.57;4.03;;;;;;;3.35;100.00;-18118.09;5064857;28;20514;-85
2023/02/27 10:45:42;;;;;;;7.60;2.85;;;;;;;3.51;100.00;-18122.22;5064296;28;20048;-84
2023/02/27 10:48:09;;;;;;;6.13;2.63;;;;;;;3.56;100.00;-18123.63;5064945;28;20091;-85
2023/02/27 10:50:38;;;;;;;5.70;2.45;;;;;;;3.72;100.00;-18127.91;5064769;28;20106;-83
2023/02/27 10:53:15;;;;;;;7.10;2.35;;;;;;;3.75;100.00;-18128.88;5069058;28;20059;-83
2023/02/27 10:55:46;;;;;;;4.68;2.00;;;;;;;3.83;100.00;-18130.94;5072631;28;20051;-82
2023/02/27 10:58:17;;;;;;;5.25;1.83;;;;;;;3.92;100.00;-18133.44;5065317;28;20102;-83
2023/02/27 11:00:56;;;;;;;4.60;1.95;;;;;;;4.03;100.00;-18136.47;5063323;28;20043;-83
2023/02/27 11:03:32;;;;;;;4.72;1.60;;;;;;;4.20;100.00;-18141.03;5063648;28;20060;-84
2023/02/27 11:06:03;;;;;;;5.78;2.20;;;;;;;4.21;100.00;-18141.31;5053983;28;20567;-83
2023/02/27 11:08:30;;;;;;;8.30;4.35;;;;;;;4.30;100.00;-18143.78;5068363;28;20044;-83
2023/02/27 11:10:58;;;;;;;6.43;1.77;;;;;;;4.48;100.00;-18148.63;5063106;28;20501;-83
2023/02/27 11:13:26;;;;;;;4.72;1.67;;;;;;;4.60;100.00;-18151.78;5065115;28;20372;-83
2023/02/27 11:16:12;;;;;;;3.58;1.50;;;;;;;4.69;100.00;-18154.28;5072354;28;20036;-85
2023/02/27 11:18:40;;;;;;;4.72;1.80;;;;;;;4.87;100.00;-18158.97;5051407;28;20049;-83
2023/02/27 11:21:13;;;;;;;2.80;1.30;;;;;;;4.95;100.00;-18161.19;5068075;28;20069;-85
2023/02/27 11:24:06;;;;;;;4.40;1.33;;;;;;;5.08;100.00;-18164.78;5068352;28;20053;-83
2023/02/27 11:26:40;;;;;;;4.10;1.60;;;;;;;4.88;100.00;-18159.38;5044945;28;20048;-84
2023/02/27 11:29:10;;;;;;;4.25;1.85;;;;;;;4.88;100.00;-18159.25;5059276;28;20051;-84
2023/02/27 11:31:38;;;;;;;4.93;1.80;;;;;;;5.14;100.00;-18166.44;5065713;28;20047;-84
2023/02/27 11:34:07;;;;;;;3.95;1.20;;;;;;;5.14;100.00;-18166.44;5053461;28;20044;-83
2023/02/27 11:37:04;;;;;;;4.13;1.40;;;;;;;5.16;100.00;-18166.97;5066120;28;20051;-84